Time;durP1;ratioP1;P1;durP2;ratioP2;P2;SDS_P1;SDS_P2;PMS_P1;PMS_P2;Temp;Humidity;BMP_temperature;BMP_pressure;BME280_temperature;BME280_humidity;BME280_pressure;Samples;Min_cycle;Max_cycle;Signal;HPM_P1;HPM_P2
2023/07/28 00:00:10;;;;;;;5.78;3.55;;;;;;;;;;5019622;28;20207;-63
2023/07/28 00:02:39;;;;;;;3.83;3.35;;;;;;;;;;5007519;28;20207;-62
2023/07/28 00:05:11;;;;;;;3.90;3.13;;;;;;;;;;5025500;28;20192;-62
2023/07/28 00:07:50;;;;;;;4.03;3.15;;;;;;;;;;5033921;28;20242;-62
2023/07/28 00:10:23;;;;;;;3.30;3.00;;;;;;;;;;5031370;28;20203;-62
2023/07/28 00:13:02;;;;;;;4.95;3.33;;;;;;;;;;4998103;28;20403;-62
2023/07/28 00:15:31;;;;;;;3.42;3.10;;;;;;;;;;5032031;28;20231;-67
2023/07/28 00:18:21;;;;;;;5.70;3.15;;;;;;;;;;5011480;28;20200;-65
2023/07/28 00:20:58;;;;;;;3.60;3.08;;;;;;;;;;5013511;28;20343;-63
2023/07/28 00:23:33;;;;;;;3.50;3.30;;;;;;;;;;5030905;28;20206;-68
2023/07/28 00:26:08;;;;;;;3.30;3.10;;;;;;;;;;5030099;28;20242;-66
2023/07/28 00:28:47;;;;;;;3.85;3.42;;;;;;;;;;5030407;28;20499;-68
2023/07/28 00:31:21;;;;;;;3.47;3.17;;;;;;;;;;5022503;28;20198;-67
2023/07/28 00:33:59;;;;;;;4.60;3.20;;;;;;;;;;4994764;28;20270;-68
2023/07/28 00:36:31;;;;;;;3.35;3.10;;;;;;;;;;5030967;28;20224;-66
2023/07/28 00:39:01;;;;;;;4.95;3.50;;;;;;;;;;5015787;28;20631;-64
2023/07/28 00:41:33;;;;;;;4.70;3.45;;;;;;;;;;5031319;28;20206;-64
2023/07/28 00:44:07;;;;;;;2.97;2.78;;;;;;;;;;5025888;28;20226;-66
2023/07/28 00:46:41;;;;;;;4.00;2.75;;;;;;;;;;5025591;28;20224;-66
2023/07/28 00:49:17;;;;;;;3.25;3.05;;;;;;;;;;4992014;28;20227;-65
2023/07/28 00:51:51;;;;;;;4.40;3.38;;;;;;;;;;5015458;28;20257;-64
2023/07/28 00:54:27;;;;;;;3.08;2.78;;;;;;;;;;5013246;28;20210;-64
2023/07/28 00:57:05;;;;;;;3.30;3.00;;;;;;;;;;5009713;28;20262;-63
2023/07/28 00:59:58;;;;;;;3.58;3.28;;;;;;;;;;5014235;28;20212;-64
2023/07/28 01:02:37;;;;;;;3.55;2.80;;;;;;;;;;5025299;28;20195;-63
2023/07/28 01:05:15;;;;;;;4.20;3.58;;;;;;;;;;5017169;28;20223;-64
2023/07/28 01:08:10;;;;;;;3.10;2.90;;;;;;;;;;5017603;28;20236;-68
2023/07/28 01:10:41;;;;;;;3.20;2.90;;;;;;;;;;5001029;28;20215;-63
2023/07/28 01:13:10;;;;;;;4.70;3.08;;;;;;;;;;5020241;28;20258;-63
2023/07/28 01:15:43;;;;;;;3.33;3.03;;;;;;;;;;5022561;28;20198;-64
2023/07/28 01:18:15;;;;;;;3.38;3.08;;;;;;;;;;5025002;28;20220;-64
2023/07/28 01:20:55;;;;;;;3.75;3.15;;;;;;;;;;4984854;28;20203;-64
2023/07/28 01:23:47;;;;;;;3.53;3.20;;;;;;;;;;5024786;28;20263;-64
2023/07/28 01:26:18;;;;;;;3.30;3.10;;;;;;;;;;5002382;28;20208;-65
2023/07/28 01:28:47;;;;;;;3.30;3.00;;;;;;;;;;5021397;28;20216;-64
2023/07/28 01:31:23;;;;;;;3.70;3.40;;;;;;;;;;5008043;28;20223;-65
2023/07/28 01:33:53;;;;;;;3.13;2.92;;;;;;;;;;5024552;28;20254;-64
2023/07/28 01:36:21;;;;;;;3.58;3.13;;;;;;;;;;5021790;28;20226;-64
2023/07/28 01:38:50;;;;;;;3.97;3.30;;;;;;;;;;5023051;28;20267;-64
2023/07/28 01:41:27;;;;;;;3.40;2.95;;;;;;;;;;5025554;28;20207;-65
2023/07/28 01:43:59;;;;;;;2.80;2.60;;;;;;;;;;5011503;28;20203;-65
2023/07/28 01:46:29;;;;;;;3.20;2.95;;;;;;;;;;5024695;28;20208;-63
2023/07/28 01:49:02;;;;;;;3.88;3.10;;;;;;;;;;5027442;28;20223;-65
2023/07/28 01:51:34;;;;;;;3.42;2.90;;;;;;;;;;5021932;28;20227;-66
2023/07/28 01:54:10;;;;;;;3.40;3.10;;;;;;;;;;5021060;28;20260;-68
2023/07/28 01:56:58;;;;;;;5.10;3.20;;;;;;;;;;5017701;28;20237;-68
2023/07/28 01:59:28;;;;;;;6.03;3.55;;;;;;;;;;5025092;28;20280;-65
2023/07/28 02:02:17;;;;;;;3.53;3.20;;;;;;;;;;5021171;28;20210;-65
2023/07/28 02:04:47;;;;;;;4.63;3.22;;;;;;;;;;5005534;28;20214;-65
2023/07/28 02:07:23;;;;;;;3.88;3.55;;;;;;;;;;5027089;28;20231;-65
2023/07/28 02:09:58;;;;;;;4.13;3.83;;;;;;;;;;5028636;28;20275;-63
2023/07/28 02:12:31;;;;;;;3.90;3.60;;;;;;;;;;5025574;28;20631;-64
2023/07/28 02:15:20;;;;;;;5.72;3.22;;;;;;;;;;5001231;28;20215;-65
2023/07/28 02:18:00;;;;;;;6.18;3.40;;;;;;;;;;5027088;28;20286;-64
2023/07/28 02:20:39;;;;;;;3.53;3.05;;;;;;;;;;5006122;28;20260;-65
2023/07/28 02:23:08;;;;;;;4.40;3.42;;;;;;;;;;5010521;28;20207;-65
2023/07/28 02:25:50;;;;;;;7.40;2.97;;;;;;;;;;5022855;28;20266;-64
2023/07/28 02:28:23;;;;;;;3.67;3.30;;;;;;;;;;5024317;28;20605;-64
2023/07/28 02:31:29;;;;;;;4.82;3.35;;;;;;;;;;5133301;27;20293;-64
2023/07/28 02:34:00;;;;;;;4.28;3.17;;;;;;;;;;5131898;28;20265;-63
2023/07/28 02:36:31;;;;;;;6.30;4.80;;;;;;;;;;5126114;28;20203;-64
2023/07/28 02:39:14;;;;;;;5.63;4.07;;;;;;;;;;5103252;28;20200;-63
2023/07/28 02:41:47;;;;;;;4.80;3.40;;;;;;;;;;5102033;28;20200;-65
2023/07/28 02:44:46;;;;;;;4.00;3.40;;;;;;;;;;5102917;28;20214;-68
2023/07/28 02:47:32;;;;;;;4.00;2.95;;;;;;;;;;5101738;28;20225;-67
2023/07/28 02:50:07;;;;;;;4.68;3.05;;;;;;;;;;5102433;28;20220;-64
2023/07/28 02:52:38;;;;;;;5.80;3.15;;;;;;;;;;5100111;28;20207;-63
2023/07/28 02:55:14;;;;;;;5.03;3.13;;;;;;;;;;5091643;28;20205;-63
2023/07/28 02:57:51;;;;;;;6.00;3.60;;;;;;;;;;5100976;28;20280;-64
2023/07/28 03:00:29;;;;;;;4.38;3.97;;;;;;;;;;5109019;28;20196;-63
2023/07/28 03:03:18;;;;;;;4.28;3.67;;;;;;;;;;5108567;28;20201;-63
2023/07/28 03:06:00;;;;;;;3.25;3.05;;;;;;;;;;5106320;28;20215;-64
2023/07/28 03:08:47;;;;;;;3.80;3.50;;;;;;;;;;5114513;28;20307;-63
2023/07/28 03:11:22;;;;;;;3.90;3.55;;;;;;;;;;5103139;28;20275;-63
2023/07/28 03:13:55;;;;;;;5.22;3.00;;;;;;;;;;5101323;28;20205;-63
2023/07/28 03:16:28;;;;;;;4.72;3.78;;;;;;;;;;5099315;28;20305;-63
2023/07/28 03:19:05;;;;;;;4.22;3.38;;;;;;;;;;5107069;28;20189;-64
2023/07/28 03:21:34;;;;;;;5.43;3.35;;;;;;;;;;5096107;28;20269;-64
2023/07/28 03:24:16;;;;;;;4.82;3.45;;;;;;;;;;5099289;28;20213;-64
2023/07/28 03:26:45;;;;;;;3.75;3.17;;;;;;;;;;5097714;28;20847;-64
2023/07/28 03:29:20;;;;;;;3.95;3.53;;;;;;;;;;5103987;28;20243;-63
2023/07/28 03:31:52;;;;;;;3.80;2.92;;;;;;;;;;5099219;28;20200;-63
2023/07/28 03:34:22;;;;;;;3.33;2.90;;;;;;;;;;5099589;28;20193;-64
2023/07/28 03:36:53;;;;;;;5.47;3.28;;;;;;;;;;5098193;28;20231;-64
2023/07/28 03:39:31;;;;;;;4.15;3.42;;;;;;;;;;5099625;28;20290;-63
2023/07/28 03:42:05;;;;;;;3.22;2.80;;;;;;;;;;5094001;28;20220;-64
2023/07/28 03:44:41;;;;;;;3.25;2.88;;;;;;;;;;5086099;28;20236;-63
2023/07/28 03:47:15;;;;;;;3.22;3.03;;;;;;;;;;5084068;28;20356;-64
2023/07/28 03:49:45;;;;;;;3.72;3.30;;;;;;;;;;5090160;28;20281;-63
2023/07/28 03:52:15;;;;;;;3.97;3.42;;;;;;;;;;5091099;28;20206;-63
2023/07/28 03:54:53;;;;;;;5.28;2.97;;;;;;;;;;5090097;28;20201;-64
2023/07/28 03:57:33;;;;;;;4.80;3.40;;;;;;;;;;5088917;28;20255;-63
2023/07/28 04:00:04;;;;;;;3.20;3.00;;;;;;;;;;5088110;28;20209;-63
2023/07/28 04:02:37;;;;;;;3.00;2.80;;;;;;;;;;5089342;28;20216;-65
2023/07/28 04:05:14;;;;;;;3.80;3.05;;;;;;;;;;5091131;28;20212;-62
2023/07/28 04:07:46;;;;;;;3.63;3.33;;;;;;;;;;5085856;28;20419;-64
2023/07/28 04:10:19;;;;;;;3.78;3.47;;;;;;;;;;5085506;28;20439;-63
2023/07/28 04:12:57;;;;;;;3.75;3.35;;;;;;;;;;5085212;28;20211;-62
2023/07/28 04:15:35;;;;;;;3.40;3.05;;;;;;;;;;5087250;28;20194;-66
2023/07/28 04:18:17;;;;;;;7.22;3.78;;;;;;;;;;5088755;28;20213;-63
2023/07/28 04:20:52;;;;;;;4.50;3.60;;;;;;;;;;5090340;28;20228;-65
2023/07/28 04:23:24;;;;;;;3.95;3.05;;;;;;;;;;5086180;28;20205;-64
2023/07/28 04:26:08;;;;;;;3.42;3.22;;;;;;;;;;5077547;28;20243;-63
2023/07/28 04:28:46;;;;;;;6.75;3.35;;;;;;;;;;5086446;28;20259;-64
2023/07/28 04:31:32;;;;;;;3.85;3.38;;;;;;;;;;5085330;28;20243;-64
2023/07/28 04:34:17;;;;;;;3.90;3.47;;;;;;;;;;5086948;28;20197;-64
2023/07/28 04:36:59;;;;;;;9.23;3.70;;;;;;;;;;5079592;28;20249;-64
2023/07/28 04:39:29;;;;;;;4.53;3.10;;;;;;;;;;5082557;28;20197;-63
2023/07/28 04:44:45;;;;;;;6.30;3.47;;;;;;;;;;5075249;28;20615;-63
2023/07/28 04:47:15;;;;;;;6.30;4.78;;;;;;;;;;5076348;28;20221;-63
2023/07/28 04:50:01;;;;;;;6.72;3.90;;;;;;;;;;5064674;28;20225;-63
2023/07/28 04:52:30;;;;;;;5.82;3.72;;;;;;;;;;5069360;28;20221;-64
2023/07/28 04:54:59;;;;;;;6.05;3.53;;;;;;;;;;5078830;28;20273;-66
2023/07/28 04:57:29;;;;;;;6.30;4.05;;;;;;;;;;5079435;28;20225;-63
2023/07/28 04:59:58;;;;;;;6.57;3.83;;;;;;;;;;5079869;28;20201;-63
2023/07/28 05:02:26;;;;;;;4.13;3.53;;;;;;;;;;5062966;28;20205;-64
2023/07/28 05:04:57;;;;;;;6.88;3.38;;;;;;;;;;5071847;28;20217;-64
2023/07/28 05:07:28;;;;;;;5.93;3.53;;;;;;;;;;5084382;28;20252;-64
2023/07/28 05:09:57;;;;;;;3.58;3.28;;;;;;;;;;5076771;28;20225;-65
2023/07/28 05:12:26;;;;;;;3.78;2.90;;;;;;;;;;5074329;28;20236;-65
2023/07/28 05:14:54;;;;;;;3.50;3.20;;;;;;;;;;5079388;28;20223;-64
2023/07/28 05:17:26;;;;;;;3.60;3.30;;;;;;;;;;5077211;28;20228;-64
2023/07/28 05:19:56;;;;;;;3.15;2.95;;;;;;;;;;5079483;28;20205;-63
2023/07/28 05:22:26;;;;;;;3.60;3.30;;;;;;;;;;5076714;28;20198;-63
2023/07/28 05:24:55;;;;;;;3.70;3.17;;;;;;;;;;5082157;28;20193;-64
2023/07/28 05:27:24;;;;;;;3.50;3.20;;;;;;;;;;5080730;28;20252;-64
2023/07/28 05:29:53;;;;;;;2.92;2.72;;;;;;;;;;5076121;28;20205;-63
2023/07/28 05:32:22;;;;;;;2.92;2.72;;;;;;;;;;5079965;28;20240;-64
2023/07/28 05:34:53;;;;;;;3.13;2.92;;;;;;;;;;5077346;28;20272;-63
2023/07/28 05:37:23;;;;;;;3.75;3.45;;;;;;;;;;5079246;28;20286;-64
2023/07/28 05:39:52;;;;;;;3.72;3.40;;;;;;;;;;5078659;28;20236;-64
2023/07/28 05:42:26;;;;;;;3.42;3.13;;;;;;;;;;5077832;28;20509;-63
2023/07/28 05:44:55;;;;;;;3.67;3.10;;;;;;;;;;5086511;28;21122;-64
2023/07/28 05:47:24;;;;;;;3.63;3.28;;;;;;;;;;5083070;28;20229;-64
2023/07/28 05:49:53;;;;;;;2.85;2.65;;;;;;;;;;5077021;28;20233;-64
2023/07/28 05:52:25;;;;;;;5.35;3.00;;;;;;;;;;5082959;28;20252;-64
2023/07/28 05:54:55;;;;;;;4.10;3.30;;;;;;;;;;5080963;28;20240;-64
2023/07/28 05:57:24;;;;;;;3.95;3.30;;;;;;;;;;5080686;28;20257;-64
2023/07/28 05:59:53;;;;;;;4.53;3.17;;;;;;;;;;5073972;28;20444;-63
2023/07/28 06:02:21;;;;;;;3.80;3.50;;;;;;;;;;5076231;28;20213;-64
2023/07/28 06:04:50;;;;;;;3.58;3.20;;;;;;;;;;5080361;28;21051;-63
2023/07/28 06:07:18;;;;;;;3.88;3.10;;;;;;;;;;5078662;28;20252;-64
2023/07/28 06:09:47;;;;;;;3.20;2.90;;;;;;;;;;5084953;28;20221;-63
2023/07/28 06:12:16;;;;;;;3.45;3.05;;;;;;;;;;5085276;28;20681;-64
2023/07/28 06:14:47;;;;;;;4.30;3.25;;;;;;;;;;5074911;28;20197;-64
2023/07/28 06:17:15;;;;;;;7.00;3.20;;;;;;;;;;5080541;28;20234;-64
2023/07/28 06:19:45;;;;;;;3.88;3.50;;;;;;;;;;5077324;28;20292;-64
2023/07/28 06:22:16;;;;;;;3.55;3.25;;;;;;;;;;5079956;28;20213;-64
2023/07/28 06:24:45;;;;;;;3.30;3.00;;;;;;;;;;5081642;28;20215;-64
2023/07/28 06:27:14;;;;;;;3.88;3.55;;;;;;;;;;5080959;28;20242;-64
2023/07/28 06:29:42;;;;;;;3.92;3.50;;;;;;;;;;5078047;28;20213;-65
2023/07/28 06:32:11;;;;;;;4.93;3.40;;;;;;;;;;5081639;28;20221;-63
2023/07/28 06:34:40;;;;;;;3.75;3.38;;;;;;;;;;5075900;28;20205;-64
2023/07/28 06:37:09;;;;;;;3.67;3.38;;;;;;;;;;5078396;28;20309;-64
2023/07/28 06:39:38;;;;;;;5.75;4.15;;;;;;;;;;5077506;28;20205;-63
2023/07/28 06:42:06;;;;;;;4.93;3.70;;;;;;;;;;5085025;28;20201;-64
2023/07/28 06:44:34;;;;;;;5.75;3.53;;;;;;;;;;5074995;28;20220;-63
2023/07/28 06:47:06;;;;;;;4.15;3.60;;;;;;;;;;5078466;28;20233;-64
2023/07/28 06:49:38;;;;;;;4.88;3.92;;;;;;;;;;5076512;28;20217;-64
2023/07/28 06:52:07;;;;;;;3.55;3.33;;;;;;;;;;5074044;28;20213;-62
2023/07/28 06:54:36;;;;;;;6.22;4.05;;;;;;;;;;5074794;28;20206;-63
2023/07/28 06:57:08;;;;;;;7.55;3.88;;;;;;;;;;5076214;28;20396;-63
2023/07/28 06:59:37;;;;;;;3.95;3.40;;;;;;;;;;5083558;28;20216;-64
2023/07/28 07:02:11;;;;;;;4.07;3.15;;;;;;;;;;5085493;28;20259;-64
2023/07/28 07:04:42;;;;;;;3.78;3.17;;;;;;;;;;5075308;28;20212;-64
2023/07/28 07:07:14;;;;;;;4.35;3.67;;;;;;;;;;5077877;28;20225;-63
2023/07/28 07:09:43;;;;;;;3.65;3.38;;;;;;;;;;5082625;28;20193;-66
2023/07/28 07:12:12;;;;;;;3.65;3.35;;;;;;;;;;5078972;28;20237;-63
2023/07/28 07:14:41;;;;;;;4.68;3.22;;;;;;;;;;5077777;28;20202;-63
2023/07/28 07:17:13;;;;;;;3.60;3.30;;;;;;;;;;5079036;28;20217;-64
2023/07/28 07:19:41;;;;;;;3.63;3.28;;;;;;;;;;5080738;28;20206;-63
2023/07/28 07:22:10;;;;;;;3.88;3.55;;;;;;;;;;5079435;28;20217;-64
2023/07/28 07:24:41;;;;;;;3.72;3.13;;;;;;;;;;5076380;28;20212;-63
2023/07/28 07:27:10;;;;;;;3.60;3.30;;;;;;;;;;5080325;28;20237;-63
2023/07/28 07:29:42;;;;;;;4.53;3.28;;;;;;;;;;5082414;28;20216;-63
2023/07/28 07:32:11;;;;;;;3.70;3.40;;;;;;;;;;5078772;28;20698;-63
2023/07/28 07:34:39;;;;;;;5.00;4.07;;;;;;;;;;5078118;28;20279;-64
2023/07/28 07:37:10;;;;;;;3.97;3.30;;;;;;;;;;5076941;28;20225;-63
2023/07/28 07:39:41;;;;;;;3.33;2.97;;;;;;;;;;5078124;28;20198;-64
2023/07/28 07:42:14;;;;;;;3.38;3.17;;;;;;;;;;5076619;28;20224;-63
2023/07/28 07:44:43;;;;;;;3.80;3.30;;;;;;;;;;5078225;28;20206;-63
2023/07/28 07:47:14;;;;;;;3.25;3.05;;;;;;;;;;5078540;28;20311;-63
2023/07/28 07:49:43;;;;;;;3.13;2.92;;;;;;;;;;5085146;28;20691;-64
2023/07/28 07:52:12;;;;;;;3.67;3.28;;;;;;;;;;5073373;28;20752;-63
2023/07/28 07:54:45;;;;;;;3.20;2.90;;;;;;;;;;5081171;28;20209;-64
2023/07/28 07:57:14;;;;;;;6.93;3.38;;;;;;;;;;5064497;28;20214;-64
2023/07/28 07:59:43;;;;;;;6.28;3.00;;;;;;;;;;5081214;28;20201;-65
2023/07/28 08:02:11;;;;;;;3.80;3.47;;;;;;;;;;5080061;28;20209;-64
2023/07/28 08:04:39;;;;;;;5.43;3.47;;;;;;;;;;5068935;28;20572;-65
2023/07/28 08:07:08;;;;;;;4.40;3.30;;;;;;;;;;5073068;28;20602;-64
2023/07/28 08:09:37;;;;;;;3.53;3.22;;;;;;;;;;5076973;28;20205;-63
2023/07/28 08:12:06;;;;;;;3.22;2.92;;;;;;;;;;5075993;28;20243;-65
2023/07/28 08:14:36;;;;;;;3.35;3.03;;;;;;;;;;5075410;28;20206;-64
2023/07/28 08:17:04;;;;;;;4.07;3.50;;;;;;;;;;5076900;28;20225;-64
2023/07/28 08:19:39;;;;;;;3.17;2.85;;;;;;;;;;5084410;28;20212;-65
2023/07/28 08:22:18;;;;;;;4.60;3.10;;;;;;;;;;5073372;28;20201;-64
2023/07/28 08:24:53;;;;;;;3.30;3.03;;;;;;;;;;5077258;28;20277;-64
2023/07/28 08:27:24;;;;;;;3.08;2.88;;;;;;;;;;5078138;28;20221;-64
2023/07/28 08:29:53;;;;;;;3.40;3.10;;;;;;;;;;5071219;28;20267;-64
2023/07/28 08:32:22;;;;;;;2.80;2.60;;;;;;;;;;5079366;28;20214;-63
2023/07/28 08:34:54;;;;;;;4.45;3.13;;;;;;;;;;5080731;28;20197;-63
2023/07/28 08:37:22;;;;;;;3.17;2.88;;;;;;;;;;5077763;28;20291;-63
2023/07/28 08:39:52;;;;;;;3.72;3.30;;;;;;;;;;5078820;28;20201;-63
2023/07/28 08:42:23;;;;;;;3.30;3.00;;;;;;;;;;5076787;28;20212;-65
2023/07/28 08:44:54;;;;;;;2.95;2.67;;;;;;;;;;5077304;28;20205;-63
2023/07/28 08:47:26;;;;;;;4.07;3.00;;;;;;;;;;5077691;28;20301;-67
2023/07/28 08:49:57;;;;;;;4.03;2.95;;;;;;;;;;5078607;28;20205;-64
2023/07/28 08:52:26;;;;;;;3.45;3.00;;;;;;;;;;5078432;28;20574;-66
2023/07/28 08:54:54;;;;;;;3.28;2.70;;;;;;;;;;5077706;28;20236;-64
2023/07/28 08:57:23;;;;;;;5.10;2.83;;;;;;;;;;5080563;28;20221;-64
2023/07/28 08:59:55;;;;;;;2.97;2.58;;;;;;;;;;5081080;28;20224;-65
2023/07/28 09:02:24;;;;;;;2.80;2.60;;;;;;;;;;5079813;28;20213;-64
2023/07/28 09:04:53;;;;;;;3.17;2.58;;;;;;;;;;5080393;28;20470;-63
2023/07/28 09:07:24;;;;;;;3.40;2.67;;;;;;;;;;5082383;28;20690;-65
2023/07/28 09:09:59;;;;;;;3.08;2.20;;;;;;;;;;5078187;28;20217;-65
2023/07/28 09:12:31;;;;;;;3.75;2.40;;;;;;;;;;5080129;28;20256;-64
2023/07/28 09:15:00;;;;;;;2.63;2.42;;;;;;;;;;5081600;28;20252;-65
2023/07/28 09:17:33;;;;;;;2.78;2.55;;;;;;;;;;5084999;28;20312;-63
2023/07/28 09:20:02;;;;;;;2.83;2.63;;;;;;;;;;5081556;28;20201;-63
2023/07/28 09:22:37;;;;;;;5.15;2.70;;;;;;;;;;5076515;28;20235;-64
2023/07/28 09:25:13;;;;;;;3.10;2.80;;;;;;;;;;5077344;28;20241;-64
2023/07/28 09:27:42;;;;;;;4.35;3.00;;;;;;;;;;5073923;28;20489;-61
2023/07/28 09:30:13;;;;;;;5.93;2.78;;;;;;;;;;5083787;28;20290;-64
2023/07/28 09:32:47;;;;;;;4.35;2.85;;;;;;;;;;5080270;28;20240;-63
2023/07/28 09:35:16;;;;;;;2.50;2.30;;;;;;;;;;5079136;28;20198;-64
2023/07/28 09:37:49;;;;;;;2.60;2.30;;;;;;;;;;5080469;28;20222;-65
2023/07/28 09:40:19;;;;;;;4.50;3.47;;;;;;;;;;5080246;28;20289;-63
2023/07/28 09:42:54;;;;;;;2.80;2.60;;;;;;;;;;5081921;28;20198;-63
2023/07/28 09:45:28;;;;;;;4.82;3.17;;;;;;;;;;5077879;28;20205;-63
2023/07/28 09:48:09;;;;;;;7.20;2.60;;;;;;;;;;5073790;28;21034;-64
2023/07/28 09:50:38;;;;;;;2.47;2.28;;;;;;;;;;5076996;28;20296;-64
2023/07/28 09:53:10;;;;;;;3.97;2.45;;;;;;;;;;5077758;28;20750;-64
2023/07/28 09:55:42;;;;;;;2.80;2.60;;;;;;;;;;5076236;28;20199;-63
2023/07/28 09:58:12;;;;;;;3.15;2.63;;;;;;;;;;5074731;28;20592;-64
2023/07/28 10:00:41;;;;;;;3.20;2.90;;;;;;;;;;5078093;28;20213;-64
2023/07/28 10:03:10;;;;;;;3.92;3.03;;;;;;;;;;5077140;28;20679;-63
2023/07/28 10:05:40;;;;;;;2.95;2.75;;;;;;;;;;5073690;28;20206;-65
2023/07/28 10:08:09;;;;;;;2.47;2.28;;;;;;;;;;5074528;28;20259;-64
2023/07/28 10:10:37;;;;;;;3.75;2.47;;;;;;;;;;5077074;28;20587;-64
2023/07/28 10:13:05;;;;;;;2.92;2.72;;;;;;;;;;5080242;28;20236;-65
2023/07/28 10:15:38;;;;;;;2.97;2.67;;;;;;;;;;5073029;28;20229;-64
2023/07/28 10:18:07;;;;;;;3.20;2.95;;;;;;;;;;5076428;28;20228;-64
2023/07/28 10:20:41;;;;;;;49.80;28.88;;;;;;;;;;5074139;28;20735;-64
2023/07/28 10:23:14;;;;;;;14.02;9.38;;;;;;;;;;5075874;28;20223;-64
2023/07/28 10:25:43;;;;;;;3.28;2.97;;;;;;;;;;5074326;28;20634;-65
2023/07/28 10:28:31;;;;;;;2.70;2.50;;;;;;;;;;5071992;28;20244;-65
2023/07/28 10:31:00;;;;;;;6.47;3.45;;;;;;;;;;5079759;28;20275;-64
2023/07/28 10:33:46;;;;;;;3.88;3.58;;;;;;;;;;5076145;28;20213;-63
2023/07/28 10:36:17;;;;;;;8.02;5.10;;;;;;;;;;5076077;28;20265;-63
2023/07/28 10:38:46;;;;;;;2.80;2.60;;;;;;;;;;5073669;28;20208;-64
2023/07/28 10:41:16;;;;;;;2.92;2.70;;;;;;;;;;5073214;28;20201;-64
2023/07/28 10:43:46;;;;;;;2.80;2.60;;;;;;;;;;5074912;28;21925;-65
2023/07/28 10:46:19;;;;;;;3.08;2.78;;;;;;;;;;5075453;28;20648;-65
2023/07/28 10:48:49;;;;;;;2.97;2.78;;;;;;;;;;5060059;28;20197;-64
2023/07/28 10:51:32;;;;;;;3.97;2.90;;;;;;;;;;5075595;28;20208;-64
2023/07/28 10:54:04;;;;;;;2.80;2.60;;;;;;;;;;5080783;28;20205;-64
2023/07/28 10:56:33;;;;;;;2.78;2.50;;;;;;;;;;5074561;28;20202;-64
2023/07/28 10:59:03;;;;;;;3.55;2.70;;;;;;;;;;5081366;28;20538;-64
2023/07/28 11:01:39;;;;;;;2.80;2.45;;;;;;;;;;5082553;28;20238;-66
2023/07/28 11:04:11;;;;;;;2.60;2.40;;;;;;;;;;5081094;28;20196;-63
2023/07/28 11:06:40;;;;;;;2.83;2.58;;;;;;;;;;5073287;28;20765;-64
2023/07/28 11:09:10;;;;;;;2.80;2.60;;;;;;;;;;5083962;28;20208;-65
2023/07/28 11:11:39;;;;;;;2.70;2.50;;;;;;;;;;5077406;28;20244;-64
2023/07/28 11:14:09;;;;;;;2.88;2.58;;;;;;;;;;5080150;28;20736;-62
2023/07/28 11:16:42;;;;;;;3.45;3.10;;;;;;;;;;5077101;28;20233;-64
2023/07/28 11:19:15;;;;;;;2.70;2.50;;;;;;;;;;5077187;28;20294;-64
2023/07/28 11:21:44;;;;;;;2.80;2.60;;;;;;;;;;5085872;28;20228;-64
2023/07/28 11:24:12;;;;;;;3.13;2.83;;;;;;;;;;5072769;28;20209;-65
2023/07/28 11:26:40;;;;;;;2.78;2.55;;;;;;;;;;5076957;28;20221;-64
2023/07/28 11:29:09;;;;;;;2.80;2.58;;;;;;;;;;5077407;28;20202;-65
2023/07/28 11:31:39;;;;;;;3.35;2.45;;;;;;;;;;5073443;28;20261;-65
2023/07/28 11:34:19;;;;;;;2.97;2.78;;;;;;;;;;5077923;28;20209;-65
2023/07/28 11:36:47;;;;;;;3.80;2.70;;;;;;;;;;5077755;28;20217;-65
2023/07/28 11:39:18;;;;;;;2.65;2.45;;;;;;;;;;5081099;28;20269;-66
2023/07/28 11:41:48;;;;;;;3.38;2.70;;;;;;;;;;5077609;28;20229;-65
2023/07/28 11:44:17;;;;;;;2.95;2.50;;;;;;;;;;5074554;28;20579;-64
2023/07/28 11:46:46;;;;;;;2.92;2.65;;;;;;;;;;5078195;28;20229;-68
2023/07/28 11:49:16;;;;;;;3.00;2.70;;;;;;;;;;5073837;28;20220;-64
2023/07/28 11:51:45;;;;;;;2.70;2.50;;;;;;;;;;5076471;28;20230;-65
2023/07/28 11:54:14;;;;;;;2.67;2.47;;;;;;;;;;5082356;28;20202;-65
2023/07/28 11:56:47;;;;;;;2.75;2.55;;;;;;;;;;5080262;28;20248;-65
2023/07/28 11:59:16;;;;;;;2.72;2.53;;;;;;;;;;5076108;28;20204;-64
2023/07/28 12:01:57;;;;;;;3.75;2.53;;;;;;;;;;5079843;28;20243;-64
2023/07/28 12:04:30;;;;;;;2.83;2.50;;;;;;;;;;5086737;28;20209;-65
2023/07/28 12:07:03;;;;;;;2.83;2.63;;;;;;;;;;5084183;28;20229;-68
2023/07/28 12:09:32;;;;;;;2.60;2.40;;;;;;;;;;5085745;28;20205;-64
2023/07/28 12:12:00;;;;;;;2.75;2.55;;;;;;;;;;5080649;28;20221;-64
2023/07/28 12:14:34;;;;;;;2.80;2.53;;;;;;;;;;5078402;28;20662;-65
2023/07/28 12:17:25;;;;;;;2.58;2.38;;;;;;;;;;5084583;28;20222;-63
2023/07/28 12:20:14;;;;;;;2.58;2.10;;;;;;;;;;5075850;28;20268;-64
2023/07/28 12:22:44;;;;;;;3.53;2.60;;;;;;;;;;5079079;28;20194;-65
2023/07/28 12:25:14;;;;;;;3.90;2.70;;;;;;;;;;5079421;28;20214;-64
2023/07/28 12:27:43;;;;;;;3.03;2.83;;;;;;;;;;5075702;28;20241;-65
2023/07/28 12:30:17;;;;;;;2.78;2.58;;;;;;;;;;5087578;28;20213;-66
2023/07/28 12:32:55;;;;;;;2.55;2.22;;;;;;;;;;5082175;28;20213;-65
2023/07/28 12:35:30;;;;;;;2.80;2.30;;;;;;;;;;5087530;28;20206;-64
2023/07/28 12:38:05;;;;;;;9.63;2.50;;;;;;;;;;5085690;28;20224;-64
2023/07/28 12:40:37;;;;;;;2.97;2.47;;;;;;;;;;5079214;28;20231;-65
2023/07/28 12:43:09;;;;;;;2.67;2.47;;;;;;;;;;5076248;28;20683;-64
2023/07/28 12:45:57;;;;;;;3.10;2.80;;;;;;;;;;5077460;28;20343;-65
2023/07/28 12:48:29;;;;;;;2.90;2.65;;;;;;;;;;5080911;28;20275;-65
2023/07/28 12:51:01;;;;;;;4.18;2.70;;;;;;;;;;5081169;28;20632;-64
2023/07/28 12:53:31;;;;;;;2.70;2.50;;;;;;;;;;5078183;28;20724;-63
2023/07/28 12:56:00;;;;;;;3.15;2.50;;;;;;;;;;5081648;28;20292;-65
2023/07/28 12:58:31;;;;;;;2.70;2.50;;;;;;;;;;5082203;28;20221;-66
2023/07/28 13:01:04;;;;;;;2.90;2.70;;;;;;;;;;5081614;28;20214;-64
2023/07/28 13:03:32;;;;;;;2.85;2.25;;;;;;;;;;5077990;28;20204;-63
2023/07/28 13:06:02;;;;;;;3.08;2.83;;;;;;;;;;5081702;28;20297;-64
2023/07/28 13:08:31;;;;;;;3.67;2.88;;;;;;;;;;5080751;28;20217;-65
2023/07/28 13:11:03;;;;;;;3.92;2.50;;;;;;;;;;5081275;28;20199;-64
2023/07/28 13:13:34;;;;;;;2.90;2.70;;;;;;;;;;5086436;28;20230;-64
2023/07/28 13:16:07;;;;;;;3.25;2.40;;;;;;;;;;5082913;28;20193;-65
2023/07/28 13:18:40;;;;;;;3.13;2.83;;;;;;;;;;5075088;28;20294;-64
2023/07/28 13:21:10;;;;;;;3.00;2.80;;;;;;;;;;5077633;28;20288;-64
2023/07/28 13:23:40;;;;;;;3.53;2.75;;;;;;;;;;5075156;28;20219;-67
2023/07/28 13:26:08;;;;;;;2.83;2.63;;;;;;;;;;5088114;28;20205;-64
2023/07/28 13:28:43;;;;;;;3.25;2.60;;;;;;;;;;5082094;28;20237;-65
2023/07/28 13:31:11;;;;;;;4.30;2.75;;;;;;;;;;5081458;28;20277;-64
2023/07/28 13:33:42;;;;;;;2.83;2.63;;;;;;;;;;5083130;28;20709;-65
2023/07/28 13:36:12;;;;;;;3.08;2.50;;;;;;;;;;5098376;28;20254;-64
2023/07/28 13:38:41;;;;;;;3.13;2.83;;;;;;;;;;5079678;28;20227;-65
2023/07/28 13:41:09;;;;;;;3.83;2.78;;;;;;;;;;5081529;28;20205;-64
2023/07/28 13:43:40;;;;;;;2.97;2.55;;;;;;;;;;5081514;28;20236;-63
2023/07/28 13:46:09;;;;;;;4.50;2.97;;;;;;;;;;5086775;28;20674;-64
2023/07/28 13:48:39;;;;;;;3.83;2.70;;;;;;;;;;5085373;28;20225;-64
2023/07/28 13:51:10;;;;;;;2.83;2.63;;;;;;;;;;5080271;28;20213;-63
2023/07/28 13:53:47;;;;;;;3.55;2.60;;;;;;;;;;5077269;28;20217;-64
2023/07/28 13:56:18;;;;;;;3.05;2.78;;;;;;;;;;5077731;28;20231;-64
2023/07/28 13:58:48;;;;;;;2.90;2.70;;;;;;;;;;5085059;28;20226;-65
2023/07/28 14:01:20;;;;;;;2.95;2.75;;;;;;;;;;5084187;28;20206;-64
2023/07/28 14:03:49;;;;;;;3.20;2.90;;;;;;;;;;5064744;28;20205;-64
2023/07/28 14:06:18;;;;;;;3.67;3.00;;;;;;;;;;5079631;28;20240;-65
2023/07/28 14:08:47;;;;;;;2.72;2.53;;;;;;;;;;5081696;28;20217;-63
2023/07/28 14:11:16;;;;;;;3.00;2.70;;;;;;;;;;5076689;28;20643;-67
2023/07/28 14:13:46;;;;;;;3.67;3.05;;;;;;;;;;5076960;28;20225;-65
2023/07/28 14:16:15;;;;;;;3.65;2.63;;;;;;;;;;5081557;28;20209;-65
2023/07/28 14:18:47;;;;;;;3.13;2.83;;;;;;;;;;5077908;28;20260;-64
2023/07/28 14:21:16;;;;;;;3.22;2.92;;;;;;;;;;5078489;28;20292;-65
2023/07/28 14:23:44;;;;;;;3.55;3.25;;;;;;;;;;5080359;28;20225;-63
2023/07/28 14:26:13;;;;;;;3.45;2.95;;;;;;;;;;5085870;28;20475;-64
2023/07/28 14:28:41;;;;;;;3.47;3.10;;;;;;;;;;5084338;28;20248;-64
2023/07/28 14:31:10;;;;;;;3.10;2.90;;;;;;;;;;5082281;28;20263;-62
2023/07/28 14:33:38;;;;;;;3.38;3.08;;;;;;;;;;5076394;28;20261;-64
2023/07/28 14:36:06;;;;;;;3.15;2.83;;;;;;;;;;5080295;28;20233;-63
2023/07/28 14:38:35;;;;;;;3.58;3.15;;;;;;;;;;5079902;28;20250;-63
2023/07/28 14:41:04;;;;;;;4.88;2.60;;;;;;;;;;5082923;28;20223;-65
2023/07/28 14:43:32;;;;;;;3.15;2.88;;;;;;;;;;5073545;28;20209;-63
2023/07/28 14:46:01;;;;;;;3.45;3.15;;;;;;;;;;5079902;28;20205;-64
2023/07/28 14:48:30;;;;;;;3.70;3.20;;;;;;;;;;5075326;28;20225;-64
2023/07/28 14:50:58;;;;;;;5.20;3.08;;;;;;;;;;5076108;28;20240;-64
2023/07/28 14:53:36;;;;;;;3.55;3.25;;;;;;;;;;5076250;28;20229;-62
2023/07/28 14:56:08;;;;;;;4.38;3.20;;;;;;;;;;5076131;28;20695;-64
2023/07/28 14:58:37;;;;;;;4.40;3.30;;;;;;;;;;5080569;28;20270;-67
2023/07/28 15:01:07;;;;;;;3.45;3.08;;;;;;;;;;5083300;28;20268;-64
2023/07/28 15:03:39;;;;;;;5.68;3.28;;;;;;;;;;5080783;28;20647;-65
2023/07/28 15:06:08;;;;;;;3.55;3.25;;;;;;;;;;5078005;28;20202;-63
2023/07/28 15:08:37;;;;;;;3.58;3.28;;;;;;;;;;5079832;28;20226;-63
2023/07/28 15:11:07;;;;;;;4.03;3.25;;;;;;;;;;5080399;28;20214;-64
2023/07/28 15:13:35;;;;;;;3.10;2.80;;;;;;;;;;5081699;28;20232;-65
2023/07/28 15:16:03;;;;;;;3.83;3.38;;;;;;;;;;5080914;28;20203;-64